createdAt,value
2018-06-09T00:01:19.060Z,19.90
2018-06-09T00:03:47.606Z,19.80
2018-06-09T00:06:17.474Z,19.80
2018-06-09T00:08:45.733Z,19.70
2018-06-09T00:11:14.019Z,19.60
2018-06-09T00:13:42.281Z,19.50
2018-06-09T00:16:10.587Z,19.40
2018-06-09T00:18:38.874Z,19.30
2018-06-09T00:21:07.154Z,19.30
2018-06-09T00:23:35.431Z,19.20
2018-06-09T00:26:03.722Z,19.20
2018-06-09T00:28:32.091Z,19.20
2018-06-09T00:31:00.466Z,19.10
2018-06-09T00:33:28.768Z,19.10
2018-06-09T00:36:03.716Z,19.10
2018-06-09T00:38:33.260Z,19.10
2018-06-09T00:41:02.146Z,19.10
2018-06-09T00:43:30.409Z,19.10
2018-06-09T00:45:58.694Z,19.10
2018-06-09T00:48:26.982Z,19.10
2018-06-09T00:50:55.291Z,19.10
2018-06-09T00:53:23.637Z,19.00
2018-06-09T00:55:58.832Z,19.00
2018-06-09T00:58:27.644Z,19.10
2018-06-09T01:00:55.981Z,19.10
2018-06-09T01:03:24.290Z,19.10
2018-06-09T01:05:52.579Z,19.20
2018-06-09T01:08:20.970Z,19.20
2018-06-09T01:10:50.121Z,19.30
2018-06-09T01:13:19.126Z,19.30
2018-06-09T01:15:47.469Z,19.30
2018-06-09T01:18:15.706Z,19.30
2018-06-09T01:20:44.011Z,19.30
2018-06-09T01:23:12.320Z,19.30
2018-06-09T01:25:40.847Z,19.30
2018-06-09T01:28:10.279Z,19.20
2018-06-09T01:30:38.721Z,19.20
2018-06-09T01:33:07.127Z,19.20
2018-06-09T01:35:35.443Z,19.10
2018-06-09T01:38:04.047Z,19.10
2018-06-09T01:40:32.371Z,19.20
2018-06-09T01:43:01.566Z,19.20
2018-06-09T01:45:30.561Z,19.20
2018-06-09T01:47:58.855Z,19.20
2018-06-09T01:50:27.135Z,19.30
2018-06-09T01:52:55.428Z,19.30
2018-06-09T01:55:23.821Z,19.30
2018-06-09T01:57:52.121Z,19.30
2018-06-09T02:00:20.411Z,19.30
2018-06-09T02:02:50.288Z,19.30
2018-06-09T02:05:19.937Z,19.30
2018-06-09T02:07:48.742Z,19.30
2018-06-09T02:10:18.501Z,19.20
2018-06-09T02:12:47.477Z,19.20
2018-06-09T02:15:15.886Z,19.10
2018-06-09T02:17:45.285Z,19.10
2018-06-09T02:20:13.664Z,19.10
2018-06-09T02:22:41.939Z,19.10
2018-06-09T02:25:10.625Z,19.10
2018-06-09T02:27:38.914Z,19.10
2018-06-09T02:30:07.559Z,19.10
2018-06-09T02:32:36.775Z,19.00
2018-06-09T02:35:06.491Z,19.00
2018-06-09T02:37:34.954Z,19.00
2018-06-09T02:40:03.286Z,19.00
2018-06-09T02:42:31.568Z,18.90
2018-06-09T02:45:01.120Z,18.90
2018-06-09T02:47:29.409Z,18.80
2018-06-09T02:49:57.702Z,18.90
2018-06-09T02:52:26.003Z,18.80
2018-06-09T02:54:54.320Z,18.80
2018-06-09T02:57:22.617Z,18.80
2018-06-09T03:02:19.850Z,18.70
2018-06-09T03:04:48.126Z,18.70
2018-06-09T03:07:17.508Z,18.70
2018-06-09T03:09:46.082Z,18.70
2018-06-09T03:12:14.482Z,18.70
2018-06-09T03:14:42.763Z,18.70
2018-06-09T03:17:11.106Z,18.60
2018-06-09T03:19:39.390Z,18.60
2018-06-09T03:22:07.703Z,18.50
2018-06-09T03:24:35.986Z,18.50
2018-06-09T03:27:04.284Z,18.40
2018-06-09T03:29:32.587Z,18.30
2018-06-09T03:32:01.107Z,18.30
2018-06-09T03:34:29.379Z,18.30
2018-06-09T03:36:58.402Z,18.30
2018-06-09T03:39:26.815Z,18.20
2018-06-09T03:41:55.115Z,18.20
2018-06-09T03:44:23.558Z,18.10
2018-06-09T03:46:51.986Z,18.20
2018-06-09T03:49:20.772Z,18.10
2018-06-09T03:51:49.908Z,18.10
2018-06-09T03:54:18.759Z,18.10
2018-06-09T03:56:47.050Z,18.10
2018-06-09T03:59:15.322Z,18.20
2018-06-09T04:01:44.358Z,18.20
2018-06-09T04:04:13.347Z,18.20
2018-06-09T04:06:42.545Z,18.20
2018-06-09T04:09:11.193Z,18.20
2018-06-09T04:11:39.572Z,18.30
2018-06-09T04:14:07.849Z,18.30
2018-06-09T04:16:36.182Z,18.30
2018-06-09T04:19:04.450Z,18.50
2018-06-09T04:21:32.939Z,18.70
2018-06-09T04:24:01.926Z,18.80
2018-06-09T04:26:30.979Z,19.00
2018-06-09T04:29:00.060Z,19.10
2018-06-09T04:31:28.339Z,19.20
2018-06-09T04:33:56.639Z,19.40
2018-06-09T04:36:24.903Z,19.60
2018-06-09T04:38:53.218Z,19.70
2018-06-09T04:41:21.503Z,19.90
2018-06-09T04:43:49.749Z,20.00
2018-06-09T04:46:18.970Z,20.10
2018-06-09T04:48:47.259Z,20.30
2018-06-09T04:51:15.550Z,20.40
2018-06-09T04:53:43.822Z,20.60
2018-06-09T04:56:12.110Z,20.80
2018-06-09T04:58:40.434Z,21.10
2018-06-09T05:01:09.576Z,21.40
2018-06-09T05:03:38.658Z,21.50
2018-06-09T05:06:07.401Z,21.50
2018-06-09T05:08:35.709Z,21.40
2018-06-09T05:11:04.055Z,21.30
2018-06-09T05:13:32.319Z,21.30
2018-06-09T05:16:00.578Z,21.40
2018-06-09T05:18:28.930Z,21.60
2018-06-09T05:20:57.262Z,21.90
2018-06-09T05:23:25.572Z,22.30
2018-06-09T05:25:53.866Z,22.60
2018-06-09T05:28:23.028Z,23.00
2018-06-09T05:30:51.883Z,23.30
2018-06-09T05:33:20.226Z,23.70
2018-06-09T05:35:48.825Z,23.90
2018-06-09T05:38:17.098Z,24.10
2018-06-09T05:40:45.349Z,24.40
2018-06-09T05:43:13.770Z,24.40
2018-06-09T05:45:42.110Z,24.50
2018-06-09T05:48:11.094Z,24.70
2018-06-09T05:50:39.451Z,25.00
2018-06-09T05:53:07.756Z,25.00
2018-06-09T05:55:36.016Z,24.90
2018-06-09T05:58:04.346Z,24.70
2018-06-09T06:00:32.611Z,24.50
2018-06-09T06:03:00.906Z,24.40
2018-06-09T06:05:32.678Z,24.30
2018-06-09T06:08:01.421Z,24.30
2018-06-09T06:10:29.737Z,24.20
2018-06-09T06:12:58.031Z,24.10
2018-06-09T06:15:26.626Z,24.10
2018-06-09T06:17:55.759Z,24.10
2018-06-09T06:20:24.031Z,24.20
2018-06-09T06:22:52.347Z,24.30
2018-06-09T06:25:20.606Z,24.50
2018-06-09T06:27:48.969Z,24.80
2018-06-09T06:30:17.534Z,25.30
2018-06-09T06:32:46.420Z,25.80
2018-06-09T06:35:14.823Z,26.10
2018-06-09T06:37:43.167Z,26.40
2018-06-09T06:40:11.436Z,26.90
2018-06-09T06:42:39.929Z,27.30
2018-06-09T06:47:42.410Z,27.70
2018-06-09T06:50:11.509Z,27.50
2018-06-09T06:52:39.931Z,27.60
2018-06-09T06:55:09.105Z,28.00
2018-06-09T06:57:38.310Z,28.20
2018-06-09T07:00:06.586Z,28.40
2018-06-09T07:02:34.952Z,28.40
2018-06-09T07:05:04.038Z,28.60
2018-06-09T07:07:32.338Z,28.80
2018-06-09T07:10:00.661Z,29.10
2018-06-09T07:12:29.503Z,29.30
2018-06-09T07:14:57.892Z,29.30
2018-06-09T07:17:26.224Z,29.60
2018-06-09T07:19:54.518Z,29.90
2018-06-09T07:22:23.169Z,30.00
2018-06-09T07:24:51.647Z,30.10
2018-06-09T07:27:19.934Z,29.70
2018-06-09T07:29:48.964Z,29.90
2018-06-09T07:32:17.280Z,29.80
2018-06-09T07:34:45.560Z,29.90
2018-06-09T07:37:13.907Z,30.20
2018-06-09T07:39:42.187Z,30.40
2018-06-09T07:42:10.480Z,30.40
2018-06-09T07:44:38.766Z,30.50
2018-06-09T07:47:07.168Z,30.10
2018-06-09T07:49:36.245Z,30.40
2018-06-09T07:52:05.740Z,30.60
2018-06-09T07:54:34.168Z,30.30
2018-06-09T07:57:02.841Z,30.80
2018-06-09T07:59:31.164Z,30.90
2018-06-09T08:01:59.495Z,31.60
2018-06-09T08:04:29.002Z,32.30
2018-06-09T08:06:57.716Z,33.00
2018-06-09T08:09:26.434Z,33.50
2018-06-09T08:11:54.702Z,34.10
2018-06-09T08:14:23.029Z,34.20
2018-06-09T08:16:51.307Z,34.20
2018-06-09T08:19:21.031Z,34.20
2018-06-09T08:21:49.274Z,34.20
2018-06-09T08:24:17.572Z,34.50
2018-06-09T08:26:46.137Z,34.80
2018-06-09T08:29:14.650Z,35.50
2018-06-09T08:31:43.284Z,36.20
2018-06-09T08:34:11.569Z,36.60
2018-06-09T08:36:39.867Z,36.70
2018-06-09T08:39:08.155Z,37.10
2018-06-09T08:41:36.456Z,38.20
2018-06-09T08:44:04.782Z,40.10
2018-06-09T08:46:33.051Z,41.20
2018-06-09T08:49:01.824Z,42.30
2018-06-09T08:51:31.088Z,43.00
2018-06-09T08:54:00.612Z,43.00
2018-06-09T08:56:28.997Z,43.40
2018-06-09T08:58:59.670Z,43.40
2018-06-09T09:01:27.966Z,43.50
2018-06-09T09:03:56.275Z,43.30
2018-06-09T09:06:24.534Z,41.90
2018-06-09T09:08:52.814Z,41.40
2018-06-09T09:11:21.080Z,41.50
2018-06-09T09:13:49.359Z,41.90
2018-06-09T09:16:17.633Z,42.00
2018-06-09T09:18:45.934Z,42.10
2018-06-09T09:21:14.219Z,39.80
2018-06-09T09:23:42.505Z,39.50
2018-06-09T09:26:10.777Z,39.90
2018-06-09T09:28:39.102Z,40.20
2018-06-09T09:31:07.446Z,39.50
2018-06-09T09:33:35.834Z,39.90
2018-06-09T09:36:04.158Z,39.80
2018-06-09T09:38:33.199Z,40.50
2018-06-09T09:41:01.521Z,41.30
2018-06-09T09:43:30.828Z,40.80
2018-06-09T09:48:28.765Z,41.10
2018-06-09T09:50:57.735Z,41.30
2018-06-09T09:53:26.306Z,42.00
2018-06-09T09:55:54.673Z,42.60
2018-06-09T10:00:50.971Z,40.90
2018-06-09T10:03:19.262Z,40.20
2018-06-09T10:05:47.522Z,40.20
2018-06-09T10:08:17.280Z,39.50
2018-06-09T10:10:45.618Z,39.30
2018-06-09T10:13:15.003Z,39.10
2018-06-09T10:15:43.380Z,38.80
2018-06-09T10:18:11.819Z,38.50
2018-06-09T10:20:40.176Z,38.90
2018-06-09T10:23:08.438Z,39.60
2018-06-09T10:25:36.911Z,39.60
2018-06-09T10:28:05.186Z,40.10
2018-06-09T10:30:34.430Z,39.50
2018-06-09T10:33:04.039Z,39.50
2018-06-09T10:35:32.412Z,39.20
2018-06-09T10:38:01.066Z,39.60
2018-06-09T10:40:30.475Z,39.60
2018-06-09T10:42:58.756Z,39.90
2018-06-09T10:45:27.039Z,39.20
2018-06-09T10:47:55.347Z,38.00
2018-06-09T10:50:23.687Z,37.20
2018-06-09T10:52:51.962Z,36.50
2018-06-09T10:55:20.254Z,36.50
2018-06-09T10:57:48.518Z,36.60
2018-06-09T11:00:16.822Z,36.30
2018-06-09T11:02:45.849Z,35.00
2018-06-09T11:05:15.374Z,34.60
2018-06-09T11:07:44.337Z,34.30
2018-06-09T11:10:12.635Z,33.90
2018-06-09T11:12:40.910Z,33.70
2018-06-09T11:15:09.207Z,33.20
2018-06-09T11:17:37.486Z,32.80
2018-06-09T11:20:05.810Z,32.20
2018-06-09T11:22:34.226Z,32.20
2018-06-09T11:25:02.747Z,32.00
2018-06-09T11:27:31.057Z,31.80
2018-06-09T11:29:59.389Z,31.80
2018-06-09T11:32:27.661Z,31.70
2018-06-09T11:34:56.599Z,31.40
2018-06-09T11:37:24.869Z,31.50
2018-06-09T11:39:53.144Z,31.40
2018-06-09T11:42:21.398Z,31.50
2018-06-09T11:44:50.239Z,31.70
2018-06-09T11:47:18.475Z,31.80
2018-06-09T11:49:47.575Z,31.70
2018-06-09T11:52:15.837Z,31.60
2018-06-09T11:54:44.113Z,31.60
2018-06-09T11:57:12.408Z,31.20
2018-06-09T11:59:40.716Z,31.00
2018-06-09T12:02:08.965Z,31.00
2018-06-09T12:04:38.642Z,31.00
2018-06-09T12:07:06.922Z,31.20
2018-06-09T12:09:37.073Z,31.10
2018-06-09T12:12:05.896Z,31.00
2018-06-09T12:14:34.286Z,30.80
2018-06-09T12:17:02.703Z,30.80
2018-06-09T12:19:31.010Z,30.90
2018-06-09T12:21:59.273Z,31.00
2018-06-09T12:24:27.545Z,31.10
2018-06-09T12:26:55.795Z,31.10
2018-06-09T12:29:24.066Z,31.10
2018-06-09T12:31:52.338Z,31.00
2018-06-09T12:36:51.739Z,30.90
2018-06-09T12:39:20.032Z,31.00
2018-06-09T12:41:48.285Z,31.20
2018-06-09T12:44:16.543Z,31.40
2018-06-09T12:46:45.072Z,31.60
2018-06-09T12:49:14.464Z,31.70
2018-06-09T12:51:42.727Z,32.00
2018-06-09T12:54:10.984Z,32.10
2018-06-09T12:56:40.146Z,31.90
2018-06-09T12:59:08.555Z,31.40
2018-06-09T13:01:37.967Z,31.10
2018-06-09T13:04:06.282Z,31.20
2018-06-09T13:06:34.594Z,31.10
2018-06-09T13:09:02.913Z,31.10
2018-06-09T13:11:31.190Z,31.10
2018-06-09T13:13:59.506Z,30.90
2018-06-09T13:16:27.819Z,30.80
2018-06-09T13:18:56.362Z,30.60
2018-06-09T13:21:24.654Z,30.50
2018-06-09T13:23:52.924Z,30.50
2018-06-09T13:26:21.191Z,30.60
2018-06-09T13:28:49.446Z,30.60
2018-06-09T13:31:17.735Z,30.50
2018-06-09T13:33:46.007Z,30.50
2018-06-09T13:36:14.300Z,30.40
2018-06-09T13:38:42.557Z,30.60
2018-06-09T13:41:10.835Z,30.60
2018-06-09T13:43:39.158Z,30.30
2018-06-09T13:46:07.648Z,30.30
2018-06-09T13:48:36.473Z,30.20
2018-06-09T13:51:04.734Z,30.10
2018-06-09T13:53:33.007Z,29.90
2018-06-09T13:56:01.277Z,29.90
2018-06-09T13:58:29.506Z,29.80
2018-06-09T14:00:57.816Z,29.80
2018-06-09T14:03:27.047Z,29.70
2018-06-09T14:05:56.334Z,29.70
2018-06-09T14:08:25.763Z,29.70
2018-06-09T14:10:54.079Z,29.60
2018-06-09T14:13:22.549Z,29.60
2018-06-09T14:15:51.149Z,29.60
2018-06-09T14:18:19.434Z,29.80
2018-06-09T14:20:47.703Z,29.80
2018-06-09T14:23:15.978Z,29.90
2018-06-09T14:25:44.294Z,29.90
2018-06-09T14:28:13.154Z,29.90
2018-06-09T14:30:42.358Z,29.90
2018-06-09T14:33:11.854Z,30.10
2018-06-09T14:35:40.145Z,30.20
2018-06-09T14:38:08.474Z,30.30
2018-06-09T14:40:36.751Z,30.40
2018-06-09T14:43:05.125Z,30.40
2018-06-09T14:45:34.120Z,30.40
2018-06-09T14:48:03.558Z,30.40
2018-06-09T14:50:31.863Z,30.50
2018-06-09T14:53:00.181Z,30.50
2018-06-09T14:55:28.471Z,30.40
2018-06-09T14:57:56.740Z,30.40
2018-06-09T15:00:25.110Z,30.20
2018-06-09T15:02:53.379Z,30.20
2018-06-09T15:05:21.681Z,30.00
2018-06-09T15:07:49.957Z,29.90
2018-06-09T15:10:18.230Z,29.90
2018-06-09T15:12:46.519Z,29.80
2018-06-09T15:15:14.866Z,29.70
2018-06-09T15:17:44.149Z,29.50
2018-06-09T15:20:13.479Z,29.30
2018-06-09T15:22:41.832Z,29.30
2018-06-09T15:25:11.294Z,29.30
2018-06-09T15:27:39.646Z,29.40
2018-06-09T15:30:08.929Z,29.40
2018-06-09T15:32:38.825Z,29.40
2018-06-09T15:35:08.732Z,29.40
2018-06-09T15:37:37.009Z,29.30
2018-06-09T15:40:05.259Z,29.00
2018-06-09T15:42:33.579Z,28.70
2018-06-09T15:45:01.883Z,28.40
2018-06-09T15:47:31.068Z,28.10
2018-06-09T15:50:00.673Z,27.80
2018-06-09T15:52:30.167Z,27.50
2018-06-09T15:54:58.554Z,27.20
2018-06-09T15:57:26.930Z,27.00
2018-06-09T15:59:55.218Z,26.90
2018-06-09T16:02:24.108Z,26.70
2018-06-09T16:04:52.367Z,26.60
2018-06-09T16:07:20.906Z,26.40
2018-06-09T16:09:50.850Z,26.30
2018-06-09T16:12:19.287Z,26.10
2018-06-09T16:14:48.957Z,26.00
2018-06-09T16:17:18.257Z,25.80
2018-06-09T16:19:46.510Z,25.70
2018-06-09T16:22:14.877Z,25.50
2018-06-09T16:24:43.147Z,25.40
2018-06-09T16:27:11.439Z,25.40
2018-06-09T16:29:39.694Z,25.30
2018-06-09T16:32:07.993Z,25.30
2018-06-09T16:34:36.246Z,25.30
2018-06-09T16:37:04.549Z,25.30
2018-06-09T16:39:32.831Z,25.40
2018-06-09T16:42:01.158Z,25.50
2018-06-09T16:44:29.442Z,25.50
2018-06-09T16:46:57.949Z,25.60
2018-06-09T16:49:26.205Z,25.70
2018-06-09T16:51:54.556Z,25.70
2018-06-09T16:54:24.497Z,25.80
2018-06-09T16:56:52.789Z,25.80
2018-06-09T16:59:21.050Z,25.90
2018-06-09T17:01:49.359Z,25.90
2018-06-09T17:04:18.447Z,25.90
2018-06-09T17:06:49.609Z,26.10
2018-06-09T17:09:18.608Z,26.20
2018-06-09T17:11:48.585Z,26.40
2018-06-09T17:14:17.947Z,26.50
2018-06-09T17:16:46.274Z,26.60
2018-06-09T17:19:14.557Z,26.80
2018-06-09T17:21:42.834Z,27.00
2018-06-09T17:24:12.842Z,27.10
2018-06-09T17:26:44.143Z,27.20
2018-06-09T17:29:14.884Z,27.30
2018-06-09T17:31:43.781Z,27.40
2018-06-09T17:34:13.727Z,27.50
2018-06-09T17:36:42.615Z,27.60
2018-06-09T17:39:14.246Z,27.30
2018-06-09T17:41:44.382Z,27.20
2018-06-09T17:44:12.732Z,27.00
2018-06-09T17:46:41.030Z,26.80
2018-06-09T17:49:09.291Z,26.70
2018-06-09T17:51:37.628Z,26.60
2018-06-09T17:54:06.562Z,26.60
2018-06-09T17:56:40.271Z,26.50
2018-06-09T17:59:09.807Z,26.30
2018-06-09T18:01:41.082Z,26.10
2018-06-09T18:04:09.370Z,25.90
2018-06-09T18:06:37.641Z,25.80
2018-06-09T18:09:07.894Z,25.70
2018-06-09T18:11:36.357Z,25.60
2018-06-09T18:14:06.022Z,25.50
2018-06-09T18:19:03.160Z,25.40
2018-06-09T18:21:31.415Z,25.40
2018-06-09T18:23:59.834Z,25.30
2018-06-09T18:26:28.110Z,25.30
2018-06-09T18:28:57.494Z,25.10
2018-06-09T18:31:25.859Z,25.10
2018-06-09T18:33:54.625Z,24.90
2018-06-09T18:36:23.399Z,24.50
2018-06-09T18:41:19.745Z,22.70
2018-06-09T18:43:48.196Z,21.60
2018-06-09T18:46:17.018Z,20.60
2018-06-09T18:48:45.681Z,20.00
2018-06-09T18:51:13.977Z,19.60
2018-06-09T18:53:42.593Z,19.30
2018-06-09T18:56:10.890Z,19.10
2018-06-09T18:58:39.227Z,18.80
2018-06-09T19:01:07.613Z,18.50
2018-06-09T19:03:36.533Z,18.40
2018-06-09T19:06:05.823Z,18.40
2018-06-09T19:08:35.386Z,18.40
2018-06-09T19:11:04.149Z,18.40
2018-06-09T19:13:32.647Z,18.40
2018-06-09T19:16:00.990Z,18.40
2018-06-09T19:18:29.320Z,18.40
2018-06-09T19:20:58.278Z,18.30
2018-06-09T19:23:26.999Z,18.30
2018-06-09T19:25:55.469Z,18.30
2018-06-09T19:28:23.771Z,18.20
2018-06-09T19:30:52.074Z,18.00
2018-06-09T19:33:20.391Z,18.00
2018-06-09T19:35:49.279Z,18.00
2018-06-09T19:38:18.215Z,18.00
2018-06-09T19:40:46.731Z,18.00
2018-06-09T19:43:15.365Z,18.10
2018-06-09T19:45:43.842Z,18.10
2018-06-09T19:48:12.210Z,18.10
2018-06-09T19:50:40.490Z,18.10
2018-06-09T19:53:08.783Z,18.20
2018-06-09T19:55:37.104Z,18.20
2018-06-09T19:58:05.751Z,18.20
2018-06-09T20:00:34.442Z,18.20
2018-06-09T20:03:04.054Z,18.30
2018-06-09T20:05:32.840Z,18.30
2018-06-09T20:08:01.110Z,18.40
2018-06-09T20:10:29.374Z,18.40
2018-06-09T20:12:57.658Z,18.30
2018-06-09T20:15:25.929Z,18.30
2018-06-09T20:17:54.238Z,18.30
2018-06-09T20:20:22.512Z,18.20
2018-06-09T20:22:51.090Z,18.30
2018-06-09T20:25:19.378Z,18.20
2018-06-09T20:27:47.672Z,18.20
2018-06-09T20:30:16.494Z,18.20
2018-06-09T20:32:45.220Z,18.20
2018-06-09T20:35:13.770Z,18.20
2018-06-09T20:37:42.266Z,18.20
2018-06-09T20:40:10.538Z,18.30
2018-06-09T20:42:38.799Z,18.30
2018-06-09T20:45:07.642Z,18.30
2018-06-09T20:47:36.609Z,18.30
2018-06-09T20:50:04.992Z,18.30
2018-06-09T20:52:33.459Z,18.30
2018-06-09T20:55:01.787Z,18.30
2018-06-09T20:57:30.063Z,18.30
2018-06-09T20:59:58.534Z,18.30
2018-06-09T21:02:27.723Z,18.30
2018-06-09T21:04:56.941Z,18.40
2018-06-09T21:07:25.526Z,18.30
2018-06-09T21:09:54.052Z,18.40
2018-06-09T21:12:22.335Z,18.40
2018-06-09T21:14:50.619Z,18.40
2018-06-09T21:17:20.036Z,18.50
2018-06-09T21:19:48.959Z,18.40
2018-06-09T21:22:17.463Z,18.50
2018-06-09T21:24:45.828Z,18.50
2018-06-09T21:27:19.486Z,18.50
2018-06-09T21:29:55.131Z,18.50
2018-06-09T21:32:28.168Z,18.50
2018-06-09T21:35:11.994Z,18.50
2018-06-09T21:37:47.026Z,18.50
2018-06-09T21:40:21.606Z,18.50
2018-06-09T21:42:55.547Z,18.50
2018-06-09T21:45:24.337Z,18.50
2018-06-09T21:47:52.710Z,18.50
2018-06-09T21:50:21.006Z,18.40
2018-06-09T21:52:49.401Z,18.40
2018-06-09T21:55:17.695Z,18.40
2018-06-09T21:57:46.043Z,18.40
2018-06-09T22:00:14.739Z,18.30
2018-06-09T22:02:43.648Z,18.30
2018-06-09T22:05:12.277Z,18.40
2018-06-09T22:07:40.548Z,18.40
2018-06-09T22:10:08.858Z,18.40
2018-06-09T22:12:37.243Z,18.30
2018-06-09T22:15:06.110Z,18.20
2018-06-09T22:17:34.721Z,18.30
2018-06-09T22:20:03.222Z,18.30
2018-06-09T22:22:31.497Z,18.40
2018-06-09T22:24:59.774Z,18.40
2018-06-09T22:27:28.366Z,18.40
2018-06-09T22:29:57.598Z,18.40
2018-06-09T22:32:26.214Z,18.40
2018-06-09T22:34:54.707Z,18.40
2018-06-09T22:37:23.070Z,18.40
2018-06-09T22:39:51.522Z,18.40
2018-06-09T22:44:48.395Z,18.50
2018-06-09T22:47:17.008Z,18.50
2018-06-09T22:49:45.943Z,18.50
2018-06-09T22:52:14.260Z,18.50
2018-06-09T22:54:43.173Z,18.50
2018-06-09T22:57:12.037Z,18.40
2018-06-09T22:59:40.747Z,18.40
2018-06-09T23:02:09.052Z,18.30
2018-06-09T23:04:37.429Z,18.30
2018-06-09T23:07:05.889Z,18.30
2018-06-09T23:09:34.386Z,18.30
2018-06-09T23:12:02.694Z,18.30
2018-06-09T23:16:59.035Z,18.20
2018-06-09T23:19:27.310Z,18.20
2018-06-09T23:21:55.602Z,18.00
2018-06-09T23:24:23.884Z,18.00
2018-06-09T23:26:52.312Z,17.80
2018-06-09T23:29:20.602Z,17.70
2018-06-09T23:31:48.910Z,17.70
2018-06-09T23:34:17.326Z,17.70
2018-06-09T23:36:46.116Z,17.60
2018-06-09T23:39:14.391Z,17.60
2018-06-09T23:41:42.726Z,17.70
2018-06-09T23:44:11.227Z,17.70
2018-06-09T23:46:39.528Z,17.70
2018-06-09T23:49:08.118Z,17.70
2018-06-09T23:51:36.435Z,17.70
2018-06-09T23:54:05.207Z,17.70
2018-06-09T23:56:33.513Z,17.80
2018-06-09T23:59:01.855Z,17.80
